createdAt,value
2023-02-11T00:00:21.547Z,34.42
2023-02-11T00:02:48.285Z,35.13
2023-02-11T00:05:15.218Z,34.90
2023-02-11T00:07:41.885Z,35.24
2023-02-11T00:10:09.684Z,35.25
2023-02-11T00:12:36.815Z,34.82
2023-02-11T00:15:04.188Z,34.36
2023-02-11T00:17:31.405Z,35.14
2023-02-11T00:19:58.071Z,35.74
2023-02-11T00:22:24.717Z,34.76
2023-02-11T00:24:51.337Z,35.06
2023-02-11T00:27:18.047Z,35.67
2023-02-11T00:29:44.659Z,34.84
2023-02-11T00:32:11.280Z,35.41
2023-02-11T00:34:37.920Z,34.70
2023-02-11T00:37:04.796Z,35.55
2023-02-11T00:39:31.475Z,35.41
2023-02-11T00:41:58.334Z,35.52
2023-02-11T00:44:25.155Z,35.56
2023-02-11T00:46:51.781Z,35.90
2023-02-11T00:49:18.390Z,35.68
2023-02-11T00:51:47.552Z,35.77
2023-02-11T00:54:14.261Z,34.73
2023-02-11T00:56:40.913Z,35.54
2023-02-11T00:59:07.584Z,35.13
2023-02-11T01:01:34.309Z,36.39
2023-02-11T01:04:02.334Z,35.77
2023-02-11T01:06:29.006Z,35.42
2023-02-11T01:08:55.711Z,35.88
2023-02-11T01:11:23.239Z,35.58
2023-02-11T01:13:50.047Z,35.85
2023-02-11T01:16:17.313Z,35.87
2023-02-11T01:18:46.965Z,36.22
2023-02-11T01:21:14.453Z,34.74
2023-02-11T01:23:41.136Z,35.21
2023-02-11T01:26:07.837Z,35.46
2023-02-11T01:28:34.602Z,36.04
2023-02-11T01:31:01.844Z,34.76
2023-02-11T01:33:28.653Z,35.67
2023-02-11T01:35:55.257Z,35.43
2023-02-11T01:38:24.203Z,35.19
2023-02-11T01:40:55.081Z,35.07
2023-02-11T01:43:22.017Z,34.09
2023-02-11T01:45:48.920Z,35.43
2023-02-11T01:48:46.888Z,36.07
2023-02-11T01:51:17.075Z,35.07
2023-02-11T01:53:44.317Z,33.17
2023-02-11T01:56:10.934Z,33.67
2023-02-11T01:58:39.117Z,33.27
2023-02-11T02:01:05.762Z,32.90
2023-02-11T02:03:32.441Z,32.60
2023-02-11T02:06:04.001Z,32.12
2023-02-11T02:08:41.214Z,32.54
2023-02-11T02:11:07.974Z,32.02
2023-02-11T02:13:34.851Z,32.45
2023-02-11T02:16:03.448Z,32.77
2023-02-11T02:18:51.593Z,33.27
2023-02-11T02:21:36.033Z,32.55
2023-02-11T02:24:20.911Z,33.10
2023-02-11T02:27:16.417Z,33.11
2023-02-11T02:29:58.155Z,33.03
2023-02-11T02:32:43.346Z,32.58
2023-02-11T02:35:36.113Z,32.94
2023-02-11T02:38:11.183Z,32.56
2023-02-11T02:40:45.330Z,32.36
2023-02-11T02:43:12.035Z,33.99
2023-02-11T02:45:38.700Z,33.55
2023-02-11T02:48:05.374Z,33.71
2023-02-11T02:50:36.488Z,33.42
2023-02-11T02:53:18.134Z,34.41
2023-02-11T02:56:04.278Z,33.65
2023-02-11T02:58:54.416Z,34.93
2023-02-11T03:01:29.967Z,34.54
2023-02-11T03:03:59.493Z,35.19
2023-02-11T03:06:34.457Z,35.70
2023-02-11T03:09:09.015Z,35.80
2023-02-11T03:11:36.991Z,35.47
2023-02-11T03:14:03.988Z,35.29
2023-02-11T03:16:30.728Z,35.78
2023-02-11T03:19:01.165Z,36.02
2023-02-11T03:21:27.769Z,35.87
2023-02-11T03:23:54.937Z,36.42
2023-02-11T03:26:23.797Z,35.41
2023-02-11T03:29:10.363Z,35.73
2023-02-11T03:31:55.428Z,35.99
2023-02-11T03:34:44.041Z,35.79
2023-02-11T03:37:18.043Z,36.64
2023-02-11T03:39:47.806Z,36.31
2023-02-11T03:42:14.562Z,36.98
2023-02-11T03:44:44.309Z,35.59
2023-02-11T03:47:10.965Z,35.41
2023-02-11T03:49:38.179Z,35.93
2023-02-11T03:52:04.921Z,36.27
2023-02-11T03:54:31.719Z,35.17
2023-02-11T03:57:00.124Z,35.58
2023-02-11T03:59:26.774Z,35.57
2023-02-11T04:01:53.449Z,36.14
2023-02-11T04:04:20.356Z,35.12
2023-02-11T04:06:47.059Z,34.95
2023-02-11T04:09:13.715Z,35.48
2023-02-11T04:11:40.357Z,34.89
2023-02-11T04:14:07.010Z,34.04
2023-02-11T04:16:33.666Z,34.48
2023-02-11T04:19:00.408Z,34.00
2023-02-11T04:21:27.070Z,33.07
2023-02-11T04:23:53.782Z,33.64
2023-02-11T04:26:20.397Z,34.16
2023-02-11T04:28:47.066Z,33.98
2023-02-11T04:31:13.761Z,34.62
2023-02-11T04:33:40.478Z,34.13
2023-02-11T04:36:07.494Z,33.24
2023-02-11T04:38:34.108Z,33.49
2023-02-11T04:41:00.733Z,34.35
2023-02-11T04:43:27.430Z,33.92
2023-02-11T04:45:57.506Z,33.79
2023-02-11T04:48:24.508Z,32.14
2023-02-11T04:50:51.204Z,33.40
2023-02-11T04:53:17.813Z,32.76
2023-02-11T04:55:44.425Z,32.61
2023-02-11T04:58:11.086Z,32.89
2023-02-11T05:00:37.725Z,33.35
2023-02-11T05:03:04.353Z,32.73
2023-02-11T05:05:31.019Z,32.62
2023-02-11T05:07:57.642Z,32.40
2023-02-11T05:10:24.241Z,32.34
2023-02-11T05:12:50.868Z,32.56
2023-02-11T05:15:17.547Z,31.86
2023-02-11T05:17:44.158Z,31.97
2023-02-11T05:20:10.885Z,32.01
2023-02-11T05:22:37.468Z,31.84
2023-02-11T05:25:04.153Z,32.48
2023-02-11T05:27:30.745Z,32.24
2023-02-11T05:29:57.374Z,31.88
2023-02-11T05:32:23.977Z,31.33
2023-02-11T05:34:50.680Z,30.93
2023-02-11T05:37:17.366Z,31.45
2023-02-11T05:39:43.990Z,30.65
2023-02-11T05:42:10.657Z,30.89
2023-02-11T05:44:37.337Z,30.62
2023-02-11T05:47:03.993Z,30.41
2023-02-11T05:49:30.613Z,30.24
2023-02-11T05:51:57.500Z,29.84
2023-02-11T05:54:24.143Z,29.72
2023-02-11T05:56:50.781Z,29.65
2023-02-11T05:59:17.399Z,29.75
2023-02-11T06:01:44.003Z,29.93
2023-02-11T06:04:10.664Z,29.45
2023-02-11T06:06:37.351Z,29.61
2023-02-11T06:09:04.256Z,29.82
2023-02-11T06:11:30.890Z,29.81
2023-02-11T06:13:57.571Z,29.39
2023-02-11T06:16:24.285Z,29.56
2023-02-11T06:18:50.918Z,29.34
2023-02-11T06:21:17.601Z,29.17
2023-02-11T06:23:44.243Z,28.97
2023-02-11T06:26:16.458Z,29.37
2023-02-11T06:28:43.151Z,28.69
2023-02-11T06:31:10.017Z,28.27
2023-02-11T06:33:36.703Z,29.28
2023-02-11T06:36:03.697Z,28.98
2023-02-11T06:38:30.296Z,28.62
2023-02-11T06:40:56.947Z,28.08
2023-02-11T06:43:23.592Z,28.67
2023-02-11T06:45:56.051Z,27.70
2023-02-11T06:48:23.049Z,28.34
2023-02-11T06:50:49.672Z,28.00
2023-02-11T06:53:16.325Z,28.18
2023-02-11T06:55:43.171Z,28.33
2023-02-11T06:58:09.819Z,27.52
2023-02-11T07:00:36.698Z,28.01
2023-02-11T07:03:03.445Z,28.81
2023-02-11T07:05:30.092Z,28.95
2023-02-11T07:07:57.038Z,28.36
2023-02-11T07:10:23.763Z,28.18
2023-02-11T07:12:50.379Z,27.62
2023-02-11T07:15:17.020Z,28.57
2023-02-11T07:17:43.610Z,28.65
2023-02-11T07:20:10.653Z,28.19
2023-02-11T07:22:37.267Z,27.83
2023-02-11T07:25:04.030Z,28.57
2023-02-11T07:27:30.676Z,29.30
2023-02-11T07:29:57.293Z,29.00
2023-02-11T07:32:23.956Z,29.27
2023-02-11T07:34:50.747Z,29.05
2023-02-11T07:37:17.446Z,30.16
2023-02-11T07:39:44.102Z,29.88
2023-02-11T07:42:10.768Z,29.66
2023-02-11T07:44:37.388Z,29.25
2023-02-11T07:47:04.101Z,29.37
2023-02-11T07:49:30.782Z,28.91
2023-02-11T07:51:57.531Z,29.95
2023-02-11T07:54:24.209Z,29.05
2023-02-11T07:56:50.849Z,31.21
2023-02-11T07:59:17.496Z,30.34
2023-02-11T08:01:44.179Z,30.55
2023-02-11T08:04:10.956Z,30.46
2023-02-11T08:06:41.169Z,30.76
2023-02-11T08:09:08.037Z,30.87
2023-02-11T08:11:34.647Z,30.61
2023-02-11T08:14:01.400Z,31.35
2023-02-11T08:16:30.239Z,30.78
2023-02-11T08:18:57.667Z,30.51
2023-02-11T08:21:24.576Z,30.39
2023-02-11T08:23:51.255Z,31.59
2023-02-11T08:26:19.499Z,30.76
2023-02-11T08:28:46.711Z,31.27
2023-02-11T08:31:21.058Z,34.27
2023-02-11T08:33:47.730Z,33.62
2023-02-11T08:36:16.554Z,34.03
2023-02-11T08:38:43.161Z,35.65
2023-02-11T08:41:09.848Z,32.64
2023-02-11T08:43:36.594Z,36.62
2023-02-11T08:46:03.392Z,36.63
2023-02-11T08:48:30.118Z,40.41
2023-02-11T08:50:56.979Z,39.14
2023-02-11T08:53:23.604Z,42.83
2023-02-11T08:55:51.239Z,36.80
2023-02-11T08:58:19.174Z,37.41
2023-02-11T09:00:46.465Z,38.25
2023-02-11T09:03:13.892Z,36.56
2023-02-11T09:05:47.853Z,37.01
2023-02-11T09:08:14.492Z,44.24
2023-02-11T09:10:41.149Z,45.70
2023-02-11T09:13:07.856Z,45.47
2023-02-11T09:15:34.541Z,45.49
2023-02-11T09:18:01.347Z,43.00
2023-02-11T09:20:28.043Z,44.50
2023-02-11T09:22:54.899Z,43.03
2023-02-11T09:25:21.552Z,42.10
2023-02-11T09:27:48.241Z,42.77
2023-02-11T09:30:15.342Z,43.13
2023-02-11T09:32:41.959Z,43.73
2023-02-11T09:35:08.702Z,43.46
2023-02-11T09:37:37.354Z,43.56
2023-02-11T09:40:04.487Z,42.35
2023-02-11T09:42:43.141Z,43.50
2023-02-11T09:45:24.206Z,43.76
2023-02-11T09:47:59.460Z,43.85
2023-02-11T09:50:28.116Z,43.46
2023-02-11T09:53:00.556Z,43.58
2023-02-11T09:55:35.624Z,43.32
2023-02-11T09:58:03.367Z,43.80
2023-02-11T10:01:08.354Z,44.61
2023-02-11T10:03:46.830Z,43.73
2023-02-11T10:06:31.795Z,44.72
2023-02-11T10:09:04.209Z,44.65
2023-02-11T10:11:36.805Z,45.84
2023-02-11T10:14:15.462Z,44.93
2023-02-11T10:17:21.636Z,43.85
2023-02-11T10:20:06.484Z,44.19
2023-02-11T10:22:36.692Z,42.21
2023-02-11T10:25:13.008Z,42.77
2023-02-11T10:27:39.909Z,43.48
2023-02-11T10:30:07.880Z,44.13
2023-02-11T10:32:53.071Z,45.93
2023-02-11T10:35:21.632Z,44.87
2023-02-11T10:37:48.637Z,45.15
2023-02-11T10:40:19.569Z,44.61
2023-02-11T10:42:55.665Z,44.76
2023-02-11T10:45:30.431Z,44.24
2023-02-11T10:47:57.076Z,45.12
2023-02-11T10:50:31.281Z,43.61
2023-02-11T10:53:19.998Z,43.61
2023-02-11T10:55:56.394Z,43.05
2023-02-11T10:59:05.593Z,43.28
2023-02-11T11:01:52.857Z,43.06
2023-02-11T11:04:27.276Z,42.07
2023-02-11T11:06:53.983Z,42.57
2023-02-11T11:09:28.030Z,41.93
2023-02-11T11:11:54.689Z,41.93
2023-02-11T11:14:21.426Z,42.47
2023-02-11T11:16:54.623Z,42.61
2023-02-11T11:19:24.866Z,41.62
2023-02-11T11:21:55.759Z,42.41
2023-02-11T11:24:29.428Z,42.30
2023-02-11T11:26:57.662Z,40.62
2023-02-11T11:29:50.424Z,41.76
2023-02-11T11:32:28.037Z,40.18
2023-02-11T11:34:55.797Z,40.40
2023-02-11T11:37:22.272Z,41.10
2023-02-11T11:39:57.935Z,42.41
2023-02-11T11:42:29.959Z,41.43
2023-02-11T11:45:18.748Z,42.74
2023-02-11T11:47:48.441Z,40.90
2023-02-11T11:50:21.900Z,42.87
2023-02-11T11:53:05.137Z,42.73
2023-02-11T11:56:02.623Z,41.34
2023-02-11T11:58:29.430Z,42.99
2023-02-11T12:01:15.217Z,42.70
2023-02-11T12:04:09.659Z,42.82
2023-02-11T12:07:03.444Z,42.54
2023-02-11T12:09:38.665Z,61.88
2023-02-11T12:12:25.881Z,42.06
2023-02-11T12:15:14.178Z,41.29
2023-02-11T12:17:52.266Z,41.45
2023-02-11T12:20:56.515Z,40.41
2023-02-11T12:23:47.610Z,41.02
2023-02-11T12:26:20.489Z,41.62
2023-02-11T12:28:53.091Z,41.43
2023-02-11T12:31:34.882Z,42.73
2023-02-11T12:34:33.957Z,41.24
2023-02-11T12:37:10.896Z,40.07
2023-02-11T12:39:54.353Z,41.20
2023-02-11T12:42:38.630Z,42.91
2023-02-11T12:45:12.001Z,42.34
2023-02-11T12:48:00.896Z,42.77
2023-02-11T12:50:36.009Z,41.55
2023-02-11T12:53:28.899Z,42.04
2023-02-11T12:56:00.942Z,41.37
2023-02-11T12:58:42.799Z,42.03
2023-02-11T13:01:16.086Z,40.53
2023-02-11T13:03:56.311Z,39.70
2023-02-11T13:06:28.330Z,39.10
2023-02-11T13:08:59.529Z,39.22
2023-02-11T13:11:47.297Z,40.00
2023-02-11T13:14:32.305Z,40.29
2023-02-11T13:16:59.055Z,41.25
2023-02-11T13:19:37.633Z,58.20
2023-02-11T13:22:04.127Z,43.23
2023-02-11T13:24:42.454Z,40.14
2023-02-11T13:27:48.236Z,51.98
2023-02-11T13:30:33.514Z,43.81
2023-02-11T13:33:00.109Z,41.35
2023-02-11T13:35:33.728Z,40.83
2023-02-11T13:38:03.728Z,39.52
2023-02-11T13:40:38.199Z,39.64
2023-02-11T13:43:06.044Z,40.00
2023-02-11T13:45:42.877Z,38.39
2023-02-11T13:48:22.580Z,39.12
2023-02-11T13:50:50.815Z,37.65
2023-02-11T13:53:17.622Z,38.19
2023-02-11T13:55:48.946Z,37.15
2023-02-11T13:58:16.028Z,36.68
2023-02-11T14:00:47.658Z,36.88
2023-02-11T14:03:14.169Z,37.39
2023-02-11T14:05:40.771Z,36.78
2023-02-11T14:08:10.265Z,35.67
2023-02-11T14:10:42.826Z,36.49
2023-02-11T14:13:54.284Z,36.29
2023-02-11T14:16:36.388Z,36.34
2023-02-11T14:19:04.418Z,35.95
2023-02-11T14:21:38.349Z,38.32
2023-02-11T14:24:04.973Z,38.44
2023-02-11T14:26:52.033Z,37.27
2023-02-11T14:29:43.897Z,36.19
2023-02-11T14:32:32.699Z,36.75
2023-02-11T14:35:09.904Z,35.26
2023-02-11T14:37:44.379Z,34.72
2023-02-11T14:40:16.673Z,36.64
2023-02-11T14:42:43.313Z,33.47
2023-02-11T14:45:11.366Z,33.62
2023-02-11T14:48:05.129Z,33.99
2023-02-11T14:50:54.262Z,33.48
2023-02-11T14:53:24.543Z,34.17
2023-02-11T14:55:52.188Z,33.70
2023-02-11T14:58:28.953Z,35.37
2023-02-11T15:01:06.422Z,36.50
2023-02-11T15:03:37.777Z,37.86
2023-02-11T15:06:18.026Z,37.29
2023-02-11T15:09:02.885Z,37.53
2023-02-11T15:11:31.664Z,37.16
2023-02-11T15:13:59.809Z,37.31
2023-02-11T15:16:27.217Z,38.08
2023-02-11T15:18:59.453Z,39.09
2023-02-11T15:21:27.747Z,38.99
2023-02-11T15:24:00.590Z,38.28
2023-02-11T15:26:27.345Z,39.30
2023-02-11T15:28:53.971Z,38.76
2023-02-11T15:31:22.526Z,38.43
2023-02-11T15:33:49.696Z,38.60
2023-02-11T15:36:16.752Z,38.68
2023-02-11T15:38:43.468Z,38.96
2023-02-11T15:41:33.984Z,38.68
2023-02-11T15:44:00.945Z,38.38
2023-02-11T15:46:37.729Z,37.73
2023-02-11T15:49:04.431Z,37.83
2023-02-11T15:51:32.503Z,38.02
2023-02-11T15:54:00.645Z,38.07
2023-02-11T15:56:33.702Z,37.84
2023-02-11T15:59:07.413Z,37.23
2023-02-11T16:01:35.175Z,35.54
2023-02-11T16:04:02.228Z,35.35
2023-02-11T16:06:41.552Z,35.36
2023-02-11T16:09:08.010Z,34.73
2023-02-11T16:11:36.424Z,34.54
2023-02-11T16:14:19.426Z,34.52
2023-02-11T16:16:46.698Z,34.11
2023-02-11T16:19:13.349Z,34.43
2023-02-11T16:21:41.844Z,34.47
2023-02-11T16:24:14.878Z,33.86
2023-02-11T16:26:41.522Z,33.99
2023-02-11T16:29:11.768Z,32.90
2023-02-11T16:31:40.273Z,31.77
2023-02-11T16:34:18.114Z,29.90
2023-02-11T16:36:45.229Z,28.76
2023-02-11T16:39:11.926Z,28.62
2023-02-11T16:41:38.767Z,29.25
2023-02-11T16:44:05.423Z,28.40
2023-02-11T16:46:32.135Z,26.61
2023-02-11T16:48:59.065Z,27.52
2023-02-11T16:51:25.685Z,27.03
2023-02-11T16:53:52.342Z,28.07
2023-02-11T16:56:19.131Z,29.50
2023-02-11T16:58:45.778Z,28.27
2023-02-11T17:01:14.073Z,27.77
2023-02-11T17:03:41.064Z,27.38
2023-02-11T17:06:10.637Z,27.93
2023-02-11T17:08:39.823Z,27.99
2023-02-11T17:11:06.758Z,27.59
2023-02-11T17:13:33.653Z,28.48
2023-02-11T17:16:00.327Z,28.17
2023-02-11T17:18:26.995Z,27.45
2023-02-11T17:20:53.651Z,26.68
2023-02-11T17:23:20.305Z,27.10
2023-02-11T17:25:46.913Z,28.30
2023-02-11T17:28:13.633Z,28.77
2023-02-11T17:30:40.776Z,29.44
2023-02-11T17:33:07.386Z,29.61
2023-02-11T17:35:33.976Z,30.49
2023-02-11T17:38:00.621Z,30.29
2023-02-11T17:40:27.269Z,30.35
2023-02-11T17:42:53.949Z,29.53
2023-02-11T17:45:22.386Z,30.17
2023-02-11T17:47:49.210Z,29.99
2023-02-11T17:50:15.909Z,30.36
2023-02-11T17:52:42.574Z,29.08
2023-02-11T17:55:09.215Z,31.87
2023-02-11T17:57:35.832Z,34.52
2023-02-11T18:00:02.866Z,33.74
2023-02-11T18:02:29.509Z,33.20
2023-02-11T18:04:56.208Z,33.82
2023-02-11T18:07:23.182Z,35.91
2023-02-11T18:09:49.877Z,33.67
2023-02-11T18:12:16.530Z,34.92
2023-02-11T18:14:43.175Z,36.75
2023-02-11T18:17:09.874Z,35.15
2023-02-11T18:19:36.527Z,32.65
2023-02-11T18:22:03.251Z,32.78
2023-02-11T18:24:29.966Z,33.88
2023-02-11T18:26:56.644Z,33.39
2023-02-11T18:29:23.298Z,34.79
2023-02-11T18:31:50.069Z,34.84
2023-02-11T18:34:16.830Z,34.08
2023-02-11T18:36:43.488Z,37.26
2023-02-11T18:39:10.117Z,37.50
2023-02-11T18:41:36.746Z,37.73
2023-02-11T18:44:03.733Z,35.73
2023-02-11T18:46:30.581Z,37.25
2023-02-11T18:48:57.294Z,37.63
2023-02-11T18:51:23.997Z,39.32
2023-02-11T18:53:50.660Z,40.61
2023-02-11T18:56:19.629Z,41.44
2023-02-11T18:58:46.744Z,41.58
2023-02-11T19:01:21.080Z,41.33
2023-02-11T19:03:47.890Z,41.85
2023-02-11T19:06:18.907Z,41.39
2023-02-11T19:08:45.861Z,41.86
2023-02-11T19:11:12.936Z,42.72
2023-02-11T19:13:39.762Z,43.27
2023-02-11T19:16:11.464Z,43.66
2023-02-11T19:18:38.362Z,51.13
2023-02-11T19:21:09.389Z,60.24
2023-02-11T19:23:36.123Z,59.27
2023-02-11T19:26:02.748Z,58.33
2023-02-11T19:28:29.448Z,50.76
2023-02-11T19:30:56.264Z,49.18
2023-02-11T19:33:22.968Z,48.86
2023-02-11T19:35:49.802Z,49.54
2023-02-11T19:38:16.596Z,49.64
2023-02-11T19:40:43.224Z,49.12
2023-02-11T19:43:09.940Z,48.77
2023-02-11T19:45:39.611Z,49.76
2023-02-11T19:48:06.372Z,49.91
2023-02-11T19:50:33.074Z,48.77
2023-02-11T19:52:59.726Z,48.45
2023-02-11T19:55:26.417Z,49.73
2023-02-11T19:57:53.047Z,48.99
2023-02-11T20:00:20.091Z,49.34
2023-02-11T20:02:46.887Z,48.43
2023-02-11T20:05:13.590Z,48.39
2023-02-11T20:07:40.319Z,48.71
2023-02-11T20:10:07.732Z,48.32
2023-02-11T20:12:34.370Z,47.56
2023-02-11T20:15:01.171Z,47.84
2023-02-11T20:17:27.817Z,47.98
2023-02-11T20:19:54.509Z,48.22
2023-02-11T20:22:21.142Z,47.92
2023-02-11T20:24:47.819Z,46.77
2023-02-11T20:27:14.457Z,47.55
2023-02-11T20:29:41.080Z,47.46
2023-02-11T20:32:08.034Z,47.40
2023-02-11T20:34:34.945Z,47.20
2023-02-11T20:37:01.629Z,47.27
2023-02-11T20:39:28.333Z,46.41
2023-02-11T20:41:54.976Z,46.81
2023-02-11T20:44:21.795Z,45.98
2023-02-11T20:46:48.493Z,47.93
2023-02-11T20:49:17.125Z,48.30
2023-02-11T20:51:43.966Z,48.05
2023-02-11T20:54:17.936Z,48.37
2023-02-11T20:56:47.741Z,48.24
2023-02-11T20:59:14.809Z,48.29
2023-02-11T21:01:42.900Z,48.58
2023-02-11T21:04:14.413Z,48.93
2023-02-11T21:06:45.669Z,47.13
2023-02-11T21:09:13.932Z,47.63
2023-02-11T21:11:40.822Z,48.20
2023-02-11T21:14:07.499Z,48.73
2023-02-11T21:16:34.199Z,48.43
2023-02-11T21:19:01.264Z,47.55
2023-02-11T21:21:28.000Z,47.32
2023-02-11T21:23:54.742Z,47.41
2023-02-11T21:26:21.589Z,47.84
2023-02-11T21:28:48.380Z,47.13
2023-02-11T21:31:19.976Z,46.21
2023-02-11T21:33:46.755Z,45.63
2023-02-11T21:36:13.354Z,46.70
2023-02-11T21:38:40.033Z,46.80
2023-02-11T21:41:06.760Z,46.00
2023-02-11T21:43:33.468Z,45.38
2023-02-11T21:46:00.139Z,45.71
2023-02-11T21:48:26.799Z,44.42
2023-02-11T21:50:53.501Z,45.24
2023-02-11T21:53:20.117Z,44.24
2023-02-11T21:55:46.790Z,43.31
2023-02-11T21:58:13.447Z,43.35
2023-02-11T22:00:40.133Z,44.08
2023-02-11T22:03:06.824Z,43.64
2023-02-11T22:05:33.483Z,43.84
2023-02-11T22:08:00.108Z,43.29
2023-02-11T22:10:26.731Z,42.40
2023-02-11T22:12:53.644Z,41.98
2023-02-11T22:15:20.279Z,42.37
2023-02-11T22:17:46.947Z,42.83
2023-02-11T22:20:13.576Z,43.49
2023-02-11T22:22:40.245Z,41.62
2023-02-11T22:25:07.291Z,42.44
2023-02-11T22:27:33.935Z,41.35
2023-02-11T22:30:00.543Z,41.94
2023-02-11T22:32:27.198Z,41.46
2023-02-11T22:34:53.826Z,41.63
2023-02-11T22:37:20.590Z,41.19
2023-02-11T22:39:47.373Z,40.03
2023-02-11T22:42:14.022Z,40.24
2023-02-11T22:44:40.686Z,40.23
2023-02-11T22:47:07.379Z,40.74
2023-02-11T22:49:34.066Z,40.04
2023-02-11T22:52:00.737Z,39.55
2023-02-11T22:54:27.387Z,39.63
2023-02-11T22:56:54.002Z,40.67
2023-02-11T22:59:20.783Z,38.19
2023-02-11T23:01:47.694Z,38.73
2023-02-11T23:04:15.205Z,38.45
2023-02-11T23:06:41.931Z,37.39
2023-02-11T23:09:09.414Z,36.49
2023-02-11T23:11:36.038Z,37.61
2023-02-11T23:14:02.767Z,37.96
2023-02-11T23:16:33.148Z,36.20
2023-02-11T23:19:00.730Z,36.56
2023-02-11T23:21:29.107Z,35.75
2023-02-11T23:23:57.579Z,35.49
2023-02-11T23:26:24.336Z,35.13
2023-02-11T23:28:50.991Z,34.29
2023-02-11T23:31:18.841Z,34.28
2023-02-11T23:33:45.616Z,33.69
2023-02-11T23:36:13.564Z,33.16
2023-02-11T23:38:40.229Z,33.69
2023-02-11T23:41:06.857Z,33.26
2023-02-11T23:43:33.459Z,33.90
2023-02-11T23:46:00.168Z,33.49
2023-02-11T23:48:26.993Z,33.28
2023-02-11T23:50:53.631Z,32.60
2023-02-11T23:53:20.272Z,32.17
2023-02-11T23:55:46.920Z,33.33
2023-02-11T23:58:13.993Z,32.62
